sensor_id;sensor_type;location;lat;lon;timestamp;pressure;altitude;pressure_sealevel;temperature;humidity
55315;BME280;41619;42.816;23.226;2023-01-30T00:01:19;95840.72;;;-0.83;73.72
55315;BME280;41619;42.816;23.226;2023-01-30T00:03:45;95835.34;;;-0.83;72.97
55315;BME280;41619;42.816;23.226;2023-01-30T00:06:11;95835.13;;;-0.86;72.56
55315;BME280;41619;42.816;23.226;2023-01-30T00:08:37;95837.31;;;-0.88;72.81
55315;BME280;41619;42.816;23.226;2023-01-30T00:11:07;95840.78;;;-0.88;72.54
55315;BME280;41619;42.816;23.226;2023-01-30T00:13:33;95841.31;;;-0.86;72.71
55315;BME280;41619;42.816;23.226;2023-01-30T00:15:58;95845.94;;;-0.92;72.07
55315;BME280;41619;42.816;23.226;2023-01-30T00:18:24;95849.16;;;-0.95;72.02
55315;BME280;41619;42.816;23.226;2023-01-30T00:20:57;95851.84;;;-0.95;72.45
55315;BME280;41619;42.816;23.226;2023-01-30T00:23:24;95847.28;;;-0.94;72.57
55315;BME280;41619;42.816;23.226;2023-01-30T00:25:50;95843.78;;;-0.95;72.17
55315;BME280;41619;42.816;23.226;2023-01-30T00:28:15;95841.91;;;-0.94;72.18
55315;BME280;41619;42.816;23.226;2023-01-30T00:30:41;95828.47;;;-0.94;72.30
55315;BME280;41619;42.816;23.226;2023-01-30T00:33:06;95832.50;;;-0.92;72.10
55315;BME280;41619;42.816;23.226;2023-01-30T00:35:31;95826.03;;;-0.90;72.04
55315;BME280;41619;42.816;23.226;2023-01-30T00:37:58;95828.47;;;-0.94;71.96
55315;BME280;41619;42.816;23.226;2023-01-30T00:40:24;95830.63;;;-0.96;72.17
55315;BME280;41619;42.816;23.226;2023-01-30T00:42:50;95830.34;;;-0.95;71.80
55315;BME280;41619;42.816;23.226;2023-01-30T00:45:34;95823.88;;;-0.94;71.78
55315;BME280;41619;42.816;23.226;2023-01-30T00:48:19;95829.84;;;-0.97;71.73
55315;BME280;41619;42.816;23.226;2023-01-30T00:50:45;95826.34;;;-0.97;71.62
55315;BME280;41619;42.816;23.226;2023-01-30T00:53:11;95819.88;;;-0.96;71.50
55315;BME280;41619;42.816;23.226;2023-01-30T00:55:37;95828.22;;;-0.98;71.57
55315;BME280;41619;42.816;23.226;2023-01-30T00:58:03;95818.84;;;-1.00;71.47
55315;BME280;41619;42.816;23.226;2023-01-30T01:00:29;95824.75;;;-0.98;71.65
55315;BME280;41619;42.816;23.226;2023-01-30T01:02:55;95818.56;;;-0.99;71.23
55315;BME280;41619;42.816;23.226;2023-01-30T01:05:20;95820.50;;;-1.04;71.81
55315;BME280;41619;42.816;23.226;2023-01-30T01:07:46;95808.16;;;-1.05;71.70
55315;BME280;41619;42.816;23.226;2023-01-30T01:10:11;95807.88;;;-1.04;71.29
55315;BME280;41619;42.816;23.226;2023-01-30T01:12:44;95817.03;;;-1.05;71.64
55315;BME280;41619;42.816;23.226;2023-01-30T01:15:11;95815.19;;;-1.09;71.15
55315;BME280;41619;42.816;23.226;2023-01-30T01:17:37;95811.41;;;-1.08;71.19
55315;BME280;41619;42.816;23.226;2023-01-30T01:20:04;95806.84;;;-1.08;71.73
55315;BME280;41619;42.816;23.226;2023-01-30T01:22:29;95800.69;;;-1.08;71.26
55315;BME280;41619;42.816;23.226;2023-01-30T01:24:55;95794.25;;;-1.12;71.55
55315;BME280;41619;42.816;23.226;2023-01-30T01:27:20;95799.63;;;-1.12;71.46
55315;BME280;41619;42.816;23.226;2023-01-30T01:29:45;95802.59;;;-1.14;71.46
55315;BME280;41619;42.816;23.226;2023-01-30T01:32:11;95800.75;;;-1.18;71.11
55315;BME280;41619;42.816;23.226;2023-01-30T01:34:36;95797.03;;;-1.23;71.38
55315;BME280;41619;42.816;23.226;2023-01-30T01:37:02;95799.16;;;-1.19;71.17
55315;BME280;41619;42.816;23.226;2023-01-30T01:39:27;95800.47;;;-1.17;71.18
55315;BME280;41619;42.816;23.226;2023-01-30T01:42:13;95801.56;;;-1.18;71.68
55315;BME280;41619;42.816;23.226;2023-01-30T01:47:22;95797.28;;;-1.19;71.45
55315;BME280;41619;42.816;23.226;2023-01-30T01:49:48;95799.94;;;-1.19;71.57
55315;BME280;41619;42.816;23.226;2023-01-30T01:52:15;95799.94;;;-1.19;71.49
55315;BME280;41619;42.816;23.226;2023-01-30T01:54:46;95797.78;;;-1.17;71.22
55315;BME280;41619;42.816;23.226;2023-01-30T01:57:16;95796.19;;;-1.18;71.17
55315;BME280;41619;42.816;23.226;2023-01-30T01:59:50;95795.91;;;-1.16;71.63
55315;BME280;41619;42.816;23.226;2023-01-30T02:02:18;95801.00;;;-1.15;71.60
55315;BME280;41619;42.816;23.226;2023-01-30T02:04:47;95790.25;;;-1.15;71.67
55315;BME280;41619;42.816;23.226;2023-01-30T02:07:28;95787.28;;;-1.13;71.72
55315;BME280;41619;42.816;23.226;2023-01-30T02:09:56;95791.03;;;-1.14;71.61
55315;BME280;41619;42.816;23.226;2023-01-30T02:12:21;95783.50;;;-1.12;71.92
55315;BME280;41619;42.816;23.226;2023-01-30T02:14:47;95791.03;;;-1.14;71.37
55315;BME280;41619;42.816;23.226;2023-01-30T02:17:14;95777.63;;;-1.14;71.35
55315;BME280;41619;42.816;23.226;2023-01-30T02:19:49;95778.13;;;-1.12;71.66
55315;BME280;41619;42.816;23.226;2023-01-30T02:30:42;95777.63;;;-1.14;71.46
55315;BME280;41619;42.816;23.226;2023-01-30T02:36:28;95769.53;;;-1.09;71.56
55315;BME280;41619;42.816;23.226;2023-01-30T02:42:13;95772.50;;;-1.11;71.47
55315;BME280;41619;42.816;23.226;2023-01-30T02:47:44;95775.19;;;-1.11;71.47
55315;BME280;41619;42.816;23.226;2023-01-30T02:50:33;95777.31;;;-1.08;71.70
55315;BME280;41619;42.816;23.226;2023-01-30T02:53:01;95767.34;;;-1.07;71.71
55315;BME280;41619;42.816;23.226;2023-01-30T02:55:27;95771.34;;;-1.05;71.48
55315;BME280;41619;42.816;23.226;2023-01-30T02:57:53;95770.00;;;-1.02;71.67
55315;BME280;41619;42.816;23.226;2023-01-30T03:00:50;95774.03;;;-1.05;71.62
55315;BME280;41619;42.816;23.226;2023-01-30T03:11:23;95766.50;;;-1.03;71.30
55315;BME280;41619;42.816;23.226;2023-01-30T03:14:07;95759.00;;;-1.06;71.52
55315;BME280;41619;42.816;23.226;2023-01-30T03:16:38;95754.72;;;-1.07;71.50
55315;BME280;41619;42.816;23.226;2023-01-30T03:19:05;95759.31;;;-1.07;71.20
55315;BME280;41619;42.816;23.226;2023-01-30T03:21:39;95745.88;;;-1.07;70.97
55315;BME280;41619;42.816;23.226;2023-01-30T03:24:05;95741.31;;;-1.12;71.03
55315;BME280;41619;42.816;23.226;2023-01-30T03:26:33;95740.28;;;-1.16;71.36
55315;BME280;41619;42.816;23.226;2023-01-30T03:29:01;95740.59;;;-1.17;71.11
55315;BME280;41619;42.816;23.226;2023-01-30T03:31:27;95740.00;;;-1.14;71.10
55315;BME280;41619;42.816;23.226;2023-01-30T03:33:52;95745.66;;;-1.16;71.09
55315;BME280;41619;42.816;23.226;2023-01-30T03:36:17;95737.84;;;-1.12;71.54
55315;BME280;41619;42.816;23.226;2023-01-30T03:38:43;95743.22;;;-1.12;71.39
55315;BME280;41619;42.816;23.226;2023-01-30T03:41:08;95731.41;;;-1.11;71.11
55315;BME280;41619;42.816;23.226;2023-01-30T03:43:34;95733.25;;;-1.12;70.99
55315;BME280;41619;42.816;23.226;2023-01-30T03:45:59;95737.84;;;-1.12;71.57
55315;BME280;41619;42.816;23.226;2023-01-30T03:48:25;95731.66;;;-1.13;71.50
55315;BME280;41619;42.816;23.226;2023-01-30T03:50:50;95729.78;;;-1.12;71.08
55315;BME280;41619;42.816;23.226;2023-01-30T03:53:15;95728.19;;;-1.13;71.45
55315;BME280;41619;42.816;23.226;2023-01-30T03:55:43;95734.34;;;-1.13;71.43
55315;BME280;41619;42.816;23.226;2023-01-30T03:58:08;95730.06;;;-1.14;71.63
55315;BME280;41619;42.816;23.226;2023-01-30T04:00:34;95726.84;;;-1.11;71.44
55315;BME280;41619;42.816;23.226;2023-01-30T04:02:59;95724.66;;;-1.09;71.72
55315;BME280;41619;42.816;23.226;2023-01-30T04:05:25;95716.34;;;-1.12;71.31
55315;BME280;41619;42.816;23.226;2023-01-30T04:07:50;95714.53;;;-1.17;71.37
55315;BME280;41619;42.816;23.226;2023-01-30T04:10:16;95724.19;;;-1.16;71.89
55315;BME280;41619;42.816;23.226;2023-01-30T04:12:44;95717.44;;;-1.13;71.82
55315;BME280;41619;42.816;23.226;2023-01-30T04:15:10;95716.34;;;-1.12;71.24
55315;BME280;41619;42.816;23.226;2023-01-30T04:17:35;95713.16;;;-1.14;71.57
55315;BME280;41619;42.816;23.226;2023-01-30T04:20:01;95716.94;;;-1.15;71.50
55315;BME280;41619;42.816;23.226;2023-01-30T04:22:27;95718.06;;;-1.22;71.29
55315;BME280;41619;42.816;23.226;2023-01-30T04:24:52;95717.84;;;-1.25;71.48
55315;BME280;41619;42.816;23.226;2023-01-30T04:27:17;95714.38;;;-1.31;71.79
55315;BME280;41619;42.816;23.226;2023-01-30T04:29:43;95709.00;;;-1.31;71.64
55315;BME280;41619;42.816;23.226;2023-01-30T04:32:08;95711.44;;;-1.29;71.91
55315;BME280;41619;42.816;23.226;2023-01-30T04:34:33;95715.72;;;-1.28;71.45
55315;BME280;41619;42.816;23.226;2023-01-30T04:36:59;95706.88;;;-1.29;71.88
55315;BME280;41619;42.816;23.226;2023-01-30T04:39:24;95713.31;;;-1.30;71.69
55315;BME280;41619;42.816;23.226;2023-01-30T04:41:50;95709.59;;;-1.34;72.01
55315;BME280;41619;42.816;23.226;2023-01-30T04:44:16;95708.28;;;-1.36;71.97
55315;BME280;41619;42.816;23.226;2023-01-30T04:46:41;95709.34;;;-1.37;72.17
55315;BME280;41619;42.816;23.226;2023-01-30T04:49:09;95701.88;;;-1.40;72.20
55315;BME280;41619;42.816;23.226;2023-01-30T04:51:34;95700.28;;;-1.41;71.88
55315;BME280;41619;42.816;23.226;2023-01-30T04:54:00;95699.75;;;-1.43;72.41
55315;BME280;41619;42.816;23.226;2023-01-30T04:56:25;95691.72;;;-1.43;72.51
55315;BME280;41619;42.816;23.226;2023-01-30T04:58:51;95695.72;;;-1.41;72.58
55315;BME280;41619;42.816;23.226;2023-01-30T05:01:32;95697.31;;;-1.40;72.74
55315;BME280;41619;42.816;23.226;2023-01-30T05:03:59;95691.66;;;-1.38;72.58
55315;BME280;41619;42.816;23.226;2023-01-30T05:06:25;95688.41;;;-1.35;72.64
55315;BME280;41619;42.816;23.226;2023-01-30T05:08:52;95692.44;;;-1.38;72.81
55315;BME280;41619;42.816;23.226;2023-01-30T05:11:18;95694.34;;;-1.38;73.06
55315;BME280;41619;42.816;23.226;2023-01-30T05:13:44;95695.94;;;-1.37;73.16
55315;BME280;41619;42.816;23.226;2023-01-30T05:16:10;95689.81;;;-1.43;72.76
55315;BME280;41619;42.816;23.226;2023-01-30T05:18:36;95692.22;;;-1.41;73.49
55315;BME280;41619;42.816;23.226;2023-01-30T05:21:04;95696.78;;;-1.42;73.29
55315;BME280;41619;42.816;23.226;2023-01-30T05:23:29;95697.31;;;-1.40;73.88
55315;BME280;41619;42.816;23.226;2023-01-30T05:25:54;95697.81;;;-1.38;73.72
55315;BME280;41619;42.816;23.226;2023-01-30T05:28:20;95701.31;;;-1.37;73.61
55315;BME280;41619;42.816;23.226;2023-01-30T05:30:45;95700.50;;;-1.38;73.48
55315;BME280;41619;42.816;23.226;2023-01-30T05:33:11;95697.53;;;-1.36;73.52
55315;BME280;41619;42.816;23.226;2023-01-30T05:35:36;95701.31;;;-1.37;73.38
55315;BME280;41619;42.816;23.226;2023-01-30T05:38:01;95704.78;;;-1.37;73.64
55315;BME280;41619;42.816;23.226;2023-01-30T05:40:27;95703.75;;;-1.41;73.65
55315;BME280;41619;42.816;23.226;2023-01-30T05:42:53;95711.59;;;-1.44;73.91
55315;BME280;41619;42.816;23.226;2023-01-30T05:45:18;95707.81;;;-1.43;73.69
55315;BME280;41619;42.816;23.226;2023-01-30T05:47:43;95702.38;;;-1.38;73.57
55315;BME280;41619;42.816;23.226;2023-01-30T05:50:09;95713.66;;;-1.36;74.00
55315;BME280;41619;42.816;23.226;2023-01-30T05:52:35;95713.34;;;-1.35;73.66
55315;BME280;41619;42.816;23.226;2023-01-30T05:55:00;95721.69;;;-1.36;73.50
55315;BME280;41619;42.816;23.226;2023-01-30T05:57:26;95717.94;;;-1.35;73.46
55315;BME280;41619;42.816;23.226;2023-01-30T05:59:51;95715.47;;;-1.32;73.60
55315;BME280;41619;42.816;23.226;2023-01-30T06:02:16;95718.69;;;-1.30;73.53
55315;BME280;41619;42.816;23.226;2023-01-30T06:04:42;95711.44;;;-1.29;73.41
55315;BME280;41619;42.816;23.226;2023-01-30T06:07:07;95716.81;;;-1.29;73.15
55315;BME280;41619;42.816;23.226;2023-01-30T06:09:33;95717.34;;;-1.32;72.86
55315;BME280;41619;42.816;23.226;2023-01-30T06:11:58;95716.84;;;-1.34;72.57
55315;BME280;41619;42.816;23.226;2023-01-30T06:14:23;95712.28;;;-1.34;73.33
55315;BME280;41619;42.816;23.226;2023-01-30T06:16:49;95709.06;;;-1.36;73.19
55315;BME280;41619;42.816;23.226;2023-01-30T06:19:14;95717.34;;;-1.32;72.79
55315;BME280;41619;42.816;23.226;2023-01-30T06:21:40;95711.69;;;-1.31;73.44
55315;BME280;41619;42.816;23.226;2023-01-30T06:24:05;95717.91;;;-1.30;72.89
55315;BME280;41619;42.816;23.226;2023-01-30T06:26:31;95717.06;;;-1.31;72.94
55315;BME280;41619;42.816;23.226;2023-01-30T06:28:56;95713.59;;;-1.31;72.77
55315;BME280;41619;42.816;23.226;2023-01-30T06:31:21;95712.25;;;-1.29;73.08
55315;BME280;41619;42.816;23.226;2023-01-30T06:33:47;95719.22;;;-1.28;73.22
55315;BME280;41619;42.816;23.226;2023-01-30T06:36:13;95718.13;;;-1.27;73.12
55315;BME280;41619;42.816;23.226;2023-01-30T06:38:39;95712.25;;;-1.29;72.85
55315;BME280;41619;42.816;23.226;2023-01-30T06:41:04;95719.22;;;-1.28;73.04
55315;BME280;41619;42.816;23.226;2023-01-30T06:43:30;95715.72;;;-1.28;72.63
55315;BME280;41619;42.816;23.226;2023-01-30T06:45:57;95712.53;;;-1.30;72.87
55315;BME280;41619;42.816;23.226;2023-01-30T06:48:23;95716.00;;;-1.30;72.54
55315;BME280;41619;42.816;23.226;2023-01-30T06:50:49;95714.66;;;-1.32;72.99
55315;BME280;41619;42.816;23.226;2023-01-30T06:53:14;95714.97;;;-1.34;73.06
55315;BME280;41619;42.816;23.226;2023-01-30T06:55:40;95710.97;;;-1.36;73.16
55315;BME280;41619;42.816;23.226;2023-01-30T06:58:07;95713.13;;;-1.38;72.82
55315;BME280;41619;42.816;23.226;2023-01-30T07:00:33;95709.88;;;-1.35;73.19
55315;BME280;41619;42.816;23.226;2023-01-30T07:02:59;95720.03;;;-1.32;73.15
55315;BME280;41619;42.816;23.226;2023-01-30T07:05:24;95716.81;;;-1.29;73.69
55315;BME280;41619;42.816;23.226;2023-01-30T07:07:50;95724.31;;;-1.26;73.00
55315;BME280;41619;42.816;23.226;2023-01-30T07:10:15;95715.16;;;-1.25;73.17
55315;BME280;41619;42.816;23.226;2023-01-30T07:12:41;95727.22;;;-1.23;73.22
55315;BME280;41619;42.816;23.226;2023-01-30T07:15:07;95723.72;;;-1.23;73.66
55315;BME280;41619;42.816;23.226;2023-01-30T07:17:32;95713.78;;;-1.23;73.46
55315;BME280;41619;42.816;23.226;2023-01-30T07:19:58;95724.53;;;-1.23;73.60
55315;BME280;41619;42.816;23.226;2023-01-30T07:22:23;95721.84;;;-1.23;73.66
55315;BME280;41619;42.816;23.226;2023-01-30T07:24:49;95725.84;;;-1.20;73.34
55315;BME280;41619;42.816;23.226;2023-01-30T07:27:14;95728.25;;;-1.18;73.39
55315;BME280;41619;42.816;23.226;2023-01-30T07:29:40;95732.75;;;-1.14;73.69
55315;BME280;41619;42.816;23.226;2023-01-30T07:32:06;95738.63;;;-1.12;73.92
55315;BME280;41619;42.816;23.226;2023-01-30T07:34:32;95734.91;;;-1.11;73.67
55315;BME280;41619;42.816;23.226;2023-01-30T07:36:58;95733.53;;;-1.08;73.90
55315;BME280;41619;42.816;23.226;2023-01-30T07:39:23;95733.25;;;-1.07;73.58
55315;BME280;41619;42.816;23.226;2023-01-30T07:41:49;95733.75;;;-1.05;73.67
55315;BME280;41619;42.816;23.226;2023-01-30T07:44:14;95733.47;;;-1.03;73.25
55315;BME280;41619;42.816;23.226;2023-01-30T07:46:40;95732.38;;;-1.02;73.63
55315;BME280;41619;42.816;23.226;2023-01-30T07:49:08;95723.22;;;-1.01;73.53
55315;BME280;41619;42.816;23.226;2023-01-30T07:51:33;95725.63;;;-1.00;73.47
55315;BME280;41619;42.816;23.226;2023-01-30T07:53:59;95725.13;;;-1.02;73.43
55315;BME280;41619;42.816;23.226;2023-01-30T07:56:28;95715.69;;;-0.99;73.34
55315;BME280;41619;42.816;23.226;2023-01-30T07:58:54;95715.69;;;-0.99;73.78
55315;BME280;41619;42.816;23.226;2023-01-30T08:01:20;95717.56;;;-1.00;73.24
55315;BME280;41619;42.816;23.226;2023-01-30T08:03:46;95718.16;;;-1.03;73.83
55315;BME280;41619;42.816;23.226;2023-01-30T08:06:14;95715.22;;;-1.06;73.80
55315;BME280;41619;42.816;23.226;2023-01-30T08:08:40;95707.75;;;-1.09;73.56
55315;BME280;41619;42.816;23.226;2023-01-30T08:11:05;95702.91;;;-1.12;73.54
55315;BME280;41619;42.816;23.226;2023-01-30T08:13:31;95708.06;;;-1.16;73.04
55315;BME280;41619;42.816;23.226;2023-01-30T08:16:05;95704.59;;;-1.16;73.61
55315;BME280;41619;42.816;23.226;2023-01-30T08:18:33;95699.72;;;-1.14;73.38
55315;BME280;41619;42.816;23.226;2023-01-30T08:21:00;95693.56;;;-1.15;73.49
55315;BME280;41619;42.816;23.226;2023-01-30T08:23:26;95691.66;;;-1.14;73.15
55315;BME280;41619;42.816;23.226;2023-01-30T08:25:57;95693.56;;;-1.15;73.57
55315;BME280;41619;42.816;23.226;2023-01-30T08:28:23;95694.13;;;-1.18;73.43
55315;BME280;41619;42.816;23.226;2023-01-30T08:30:49;95696.00;;;-1.18;73.08
55315;BME280;41619;42.816;23.226;2023-01-30T08:33:16;95680.69;;;-1.18;73.34
55315;BME280;41619;42.816;23.226;2023-01-30T08:35:42;95680.41;;;-1.16;73.19
55315;BME280;41619;42.816;23.226;2023-01-30T08:38:08;95686.28;;;-1.14;73.09
55315;BME280;41619;42.816;23.226;2023-01-30T08:40:34;95681.19;;;-1.11;73.49
55315;BME280;41619;42.816;23.226;2023-01-30T08:43:00;95684.13;;;-1.12;73.28
55315;BME280;41619;42.816;23.226;2023-01-30T08:45:25;95679.53;;;-1.12;73.34
55315;BME280;41619;42.816;23.226;2023-01-30T08:47:51;95674.47;;;-1.13;72.76
55315;BME280;41619;42.816;23.226;2023-01-30T08:50:16;95677.44;;;-1.15;72.78
55315;BME280;41619;42.816;23.226;2023-01-30T08:52:41;95673.16;;;-1.16;72.87
55315;BME280;41619;42.816;23.226;2023-01-30T08:55:07;95671.50;;;-1.12;72.43
55315;BME280;41619;42.816;23.226;2023-01-30T08:57:34;95673.91;;;-1.10;72.73
55315;BME280;41619;42.816;23.226;2023-01-30T08:59:59;95680.59;;;-1.08;72.40
55315;BME280;41619;42.816;23.226;2023-01-30T09:02:25;95671.47;;;-1.07;72.58
55315;BME280;41619;42.816;23.226;2023-01-30T09:04:50;95677.84;;;-1.03;72.24
55315;BME280;41619;42.816;23.226;2023-01-30T09:07:15;95682.66;;;-1.00;72.33
55315;BME280;41619;42.816;23.226;2023-01-30T09:09:41;95674.22;;;-0.93;72.08
55315;BME280;41619;42.816;23.226;2023-01-30T09:12:06;95670.72;;;-0.88;71.66
55315;BME280;41619;42.816;23.226;2023-01-30T09:14:32;95674.13;;;-0.83;71.79
55315;BME280;41619;42.816;23.226;2023-01-30T09:16:57;95666.00;;;-0.78;71.70
55315;BME280;41619;42.816;23.226;2023-01-30T09:19:26;95665.41;;;-0.75;71.63
55315;BME280;41619;42.816;23.226;2023-01-30T09:21:52;95656.78;;;-0.72;71.17
55315;BME280;41619;42.816;23.226;2023-01-30T09:24:18;95654.31;;;-0.68;71.05
55315;BME280;41619;42.816;23.226;2023-01-30T09:26:44;95656.44;;;-0.65;71.17
55315;BME280;41619;42.816;23.226;2023-01-30T09:29:11;95659.91;;;-0.65;70.76
55315;BME280;41619;42.816;23.226;2023-01-30T09:31:37;95648.06;;;-0.64;71.45
55315;BME280;41619;42.816;23.226;2023-01-30T09:34:02;95654.47;;;-0.59;71.52
55315;BME280;41619;42.816;23.226;2023-01-30T09:36:28;95652.28;;;-0.57;70.96
55315;BME280;41619;42.816;23.226;2023-01-30T09:38:53;95647.94;;;-0.53;70.83
55315;BME280;41619;42.816;23.226;2023-01-30T09:41:48;95645.75;;;-0.51;70.83
55315;BME280;41619;42.816;23.226;2023-01-30T09:47:09;95641.91;;;-0.45;70.66
55315;BME280;41619;42.816;23.226;2023-01-30T09:54:48;95638.72;;;-0.47;70.13
55315;BME280;41619;42.816;23.226;2023-01-30T09:57:22;95634.13;;;-0.47;70.35
55315;BME280;41619;42.816;23.226;2023-01-30T10:03:01;95622.16;;;-0.54;69.89
55315;BME280;41619;42.816;23.226;2023-01-30T10:05:45;95617.28;;;-0.52;69.58
55315;BME280;41619;42.816;23.226;2023-01-30T10:19:41;95592.50;;;-0.31;68.30
55315;BME280;41619;42.816;23.226;2023-01-30T10:27:24;95585.63;;;-0.23;67.75
55315;BME280;41619;42.816;23.226;2023-01-30T10:29:55;95571.59;;;-0.20;67.77
55315;BME280;41619;42.816;23.226;2023-01-30T10:32:31;95560.56;;;-0.18;67.95
55315;BME280;41619;42.816;23.226;2023-01-30T10:35:05;95571.53;;;-0.15;67.43
55315;BME280;41619;42.816;23.226;2023-01-30T10:37:43;95567.31;;;-0.21;67.31
55315;BME280;41619;42.816;23.226;2023-01-30T10:40:13;95561.22;;;-0.26;66.98
55315;BME280;41619;42.816;23.226;2023-01-30T10:42:49;95556.53;;;-0.35;67.31
55315;BME280;41619;42.816;23.226;2023-01-30T10:45:33;95553.31;;;-0.37;67.94
55315;BME280;41619;42.816;23.226;2023-01-30T10:50:58;95536.09;;;-0.36;67.34
55315;BME280;41619;42.816;23.226;2023-01-30T10:53:34;95522.94;;;-0.37;67.68
55315;BME280;41619;42.816;23.226;2023-01-30T10:56:09;95514.75;;;-0.46;67.03
55315;BME280;41619;42.816;23.226;2023-01-30T11:01:22;95512.34;;;-0.47;67.07
55315;BME280;41619;42.816;23.226;2023-01-30T11:04:02;95512.06;;;-0.46;67.52
55315;BME280;41619;42.816;23.226;2023-01-30T11:06:29;95500.59;;;-0.51;66.93
55315;BME280;41619;42.816;23.226;2023-01-30T11:08:56;95498.50;;;-0.54;66.62
55315;BME280;41619;42.816;23.226;2023-01-30T11:14:05;95487.59;;;-0.63;66.73
55315;BME280;41619;42.816;23.226;2023-01-30T11:16:39;95480.31;;;-0.63;67.13
55315;BME280;41619;42.816;23.226;2023-01-30T11:19:07;95469.28;;;-0.61;67.08
55315;BME280;41619;42.816;23.226;2023-01-30T11:21:34;95469.19;;;-0.56;66.59
55315;BME280;41619;42.816;23.226;2023-01-30T11:24:13;95462.66;;;-0.50;66.41
55315;BME280;41619;42.816;23.226;2023-01-30T11:26:41;95464.44;;;-0.45;66.30
55315;BME280;41619;42.816;23.226;2023-01-30T11:29:26;95460.88;;;-0.41;66.83
55315;BME280;41619;42.816;23.226;2023-01-30T11:31:52;95455.44;;;-0.36;66.09
55315;BME280;41619;42.816;23.226;2023-01-30T11:34:19;95467.03;;;-0.40;66.24
55315;BME280;41619;42.816;23.226;2023-01-30T11:36:46;95449.41;;;-0.46;66.28
55315;BME280;41619;42.816;23.226;2023-01-30T11:41:41;95433.38;;;-0.51;66.22
55315;BME280;41619;42.816;23.226;2023-01-30T11:44:08;95431.69;;;-0.47;65.91
55315;BME280;41619;42.816;23.226;2023-01-30T11:46:36;95436.16;;;-0.43;65.89
55315;BME280;41619;42.816;23.226;2023-01-30T11:49:14;95427.50;;;-0.40;66.41
55315;BME280;41619;42.816;23.226;2023-01-30T11:51:44;95417.47;;;-0.34;65.95
55315;BME280;41619;42.816;23.226;2023-01-30T11:54:16;95414.19;;;-0.31;66.29
55315;BME280;41619;42.816;23.226;2023-01-30T11:56:51;95407.13;;;-0.27;66.18
55315;BME280;41619;42.816;23.226;2023-01-30T12:01:46;95402.53;;;-0.26;65.87
55315;BME280;41619;42.816;23.226;2023-01-30T12:04:12;95404.13;;;-0.25;65.92
55315;BME280;41619;42.816;23.226;2023-01-30T12:06:40;95387.78;;;-0.29;65.85
55315;BME280;41619;42.816;23.226;2023-01-30T12:09:35;95390.50;;;-0.29;66.10
55315;BME280;41619;42.816;23.226;2023-01-30T12:12:01;95390.69;;;-0.25;65.69
55315;BME280;41619;42.816;23.226;2023-01-30T12:14:43;95377.44;;;-0.22;65.96
55315;BME280;41619;42.816;23.226;2023-01-30T12:17:25;95375.22;;;-0.20;65.57
55315;BME280;41619;42.816;23.226;2023-01-30T12:25:25;95364.38;;;-0.28;65.35
55315;BME280;41619;42.816;23.226;2023-01-30T12:28:00;95357.13;;;-0.28;65.52
55315;BME280;41619;42.816;23.226;2023-01-30T12:30:37;95355.53;;;-0.29;64.98
55315;BME280;41619;42.816;23.226;2023-01-30T12:33:06;95349.47;;;-0.35;64.89
55315;BME280;41619;42.816;23.226;2023-01-30T12:38:23;95347.75;;;-0.31;64.65
55315;BME280;41619;42.816;23.226;2023-01-30T12:43:55;95321.56;;;-0.25;64.55
55315;BME280;41619;42.816;23.226;2023-01-30T12:46:36;95338.09;;;-0.18;64.62
55315;BME280;41619;42.816;23.226;2023-01-30T12:52:25;95326.63;;;-0.10;64.30
55315;BME280;41619;42.816;23.226;2023-01-30T13:00:39;95322.47;;;-0.16;64.06
55315;BME280;41619;42.816;23.226;2023-01-30T13:06:40;95314.97;;;-0.19;63.95
55315;BME280;41619;42.816;23.226;2023-01-30T13:28:20;95292.56;;;-0.14;63.40
55315;BME280;41619;42.816;23.226;2023-01-30T13:30:48;95288.78;;;-0.13;63.60
55315;BME280;41619;42.816;23.226;2023-01-30T13:33:20;95285.78;;;-0.12;63.70
55315;BME280;41619;42.816;23.226;2023-01-30T13:41:39;95282.69;;;-0.19;63.75
55315;BME280;41619;42.816;23.226;2023-01-30T13:44:24;95281.63;;;-0.18;63.50
55315;BME280;41619;42.816;23.226;2023-01-30T13:46:53;95282.13;;;-0.16;63.31
55315;BME280;41619;42.816;23.226;2023-01-30T13:52:19;95279.41;;;-0.16;63.68
55315;BME280;41619;42.816;23.226;2023-01-30T14:00:08;95273.63;;;-0.23;63.38
55315;BME280;41619;42.816;23.226;2023-01-30T14:08:20;95284.41;;;-0.23;64.01
55315;BME280;41619;42.816;23.226;2023-01-30T14:10:47;95278.22;;;-0.23;63.57
55315;BME280;41619;42.816;23.226;2023-01-30T14:13:14;95283.09;;;-0.25;63.55
55315;BME280;41619;42.816;23.226;2023-01-30T14:18:28;95288.97;;;-0.23;63.53
55315;BME280;41619;42.816;23.226;2023-01-30T14:21:18;95279.91;;;-0.27;63.95
55315;BME280;41619;42.816;23.226;2023-01-30T14:23:59;95294.47;;;-0.15;63.84
55315;BME280;41619;42.816;23.226;2023-01-30T14:40:00;95269.44;;;0.79;61.57
55315;BME280;41619;42.816;23.226;2023-01-30T14:42:27;95266.50;;;0.67;61.51
55315;BME280;41619;42.816;23.226;2023-01-30T14:45:18;95261.16;;;0.53;61.71
55315;BME280;41619;42.816;23.226;2023-01-30T14:47:42;95254.75;;;0.41;61.90
55315;BME280;41619;42.816;23.226;2023-01-30T14:50:22;95259.56;;;0.30;62.24
55315;BME280;41619;42.816;23.226;2023-01-30T14:52:48;95240.44;;;0.18;61.94
55315;BME280;41619;42.816;23.226;2023-01-30T14:55:22;95246.38;;;0.06;62.28
55315;BME280;41619;42.816;23.226;2023-01-30T14:57:53;95242.31;;;-0.05;62.97
55315;BME280;41619;42.816;23.226;2023-01-30T15:00:25;95241.47;;;-0.14;62.69
55315;BME280;41619;42.816;23.226;2023-01-30T15:02:56;95238.19;;;-0.25;62.65
55315;BME280;41619;42.816;23.226;2023-01-30T15:05:30;95240.88;;;-0.39;62.64
55315;BME280;41619;42.816;23.226;2023-01-30T15:08:09;95238.72;;;-0.50;62.32
55315;BME280;41619;42.816;23.226;2023-01-30T15:16:47;95230.06;;;-0.88;62.93
55315;BME280;41619;42.816;23.226;2023-01-30T15:19:25;95224.88;;;-0.99;63.60
55315;BME280;41619;42.816;23.226;2023-01-30T15:27:34;95230.13;;;-1.21;63.38
55315;BME280;41619;42.816;23.226;2023-01-30T15:30:17;95230.81;;;-1.29;63.75
55315;BME280;41619;42.816;23.226;2023-01-30T15:32:44;95223.94;;;-1.35;63.68
55315;BME280;41619;42.816;23.226;2023-01-30T15:35:21;95228.59;;;-1.41;63.41
55315;BME280;41619;42.816;23.226;2023-01-30T15:37:50;95227.91;;;-1.46;63.74